Airways and Terminal Forecast

Significant Meteorological Information
Terminal Aerodrome Forecast
TAF RPLL

110500Z 1106/1212 10008KT 9999 FEW025 SCT100 TX32/1106Z TN25/1121Z TEMPO 1106/1112 12012KT FEW022CB SCT023 BKN100 TEMPO 1112/1118 08007KT=
TAF RPVM

110500Z 1106/1212 04008KT 9999 FEW020 SCT100 TEMPO 1106/1112 02012KT FEW020 BKN100 TEMPO 1112/1118 35010KT FEW020 BKN250=

TAF RPLC

110500Z 1106/1212 33006KT 9999 FEW020 BKN300 TX32/1106Z TN22/1122Z TEMPO 1106/1112 11010KT SCT020 BKN100 TEMPO 1118/1124 27005KT=

TAF RPLB

110500Z 1106/1206 06008KT 9999 FEW020 TX32/1106Z TN23/1121Z TEMPO 1106/1112 08012KT SCT020 BKN080=

 TAF RPLI

110500Z 1106/1206 02008KT 9999 FEW018 TEMPO 1106/1112 03010G20KT FEW018 BKN290=

TAF RPVP

110500Z 1106/1206 09008KT 9999 FEW019 TEMPO 1106/1112 09018KT FEW017CB SCT080=

TAF RPVD

110500Z 1106/1206 04008KT 9999 FEW015 SCT080 TEMPO 1106/1112 02012KT SCT015 SCT080=

TAF RPMR

110500Z 1106/1206 02008KT 9999 FEW020 SCT250 TEMPO 1106/1112 04012KT FEW018CB SCT080=

TAF RPMD

110500Z 1106/1206 36006KT 9999 FEW016 SCT290 TEMPO 1106/1112 03010KT FEW015CB SCT016 SCT090=

TAF RPMZ

110500Z 1106/1206 26005KT 9999 FEW017 TEMPO 1106/1112 04008KT FEW016CB FEW017 SCT090=


FORECAST TAKE-OFF CONDITION
TIME

(UTC)

WIND

(dddffKT)

TEMP

(°C)

QNH

(hPa)

TIME

(UTC)

WIND

(dddffKT)

TEMP

(°C)

QNH

(hPa)

0600

12012KT

32.0

1010.0

1000

10010KT

30.0

1011.0

0700

12010KT

31.0

1010.0

1100

10008KT

29.0

1011.0

0800

08012KT

31.0

1010.0

1200

11006KT

29.0

1012.0

0900

08010KT

30.0

1010.0

1300

11006KT

28.0

1013.0


ISSUED AT NAIA AMSS-WD/PAGASA-DOST FOR 0500UTC 11 DECEMBER 2018 

PREPARED BY:               SAIN
CHECKED BY:                 GSS